首页
METAR-TAF:

METAR-TAF

机场 :

伊爾庫茨克國際機場

伊爾庫茨克, 俄罗斯

纬度: 52-16N, 经度: 104-19E, 海拔: 513米

当前天气观测

该预报发布于29分钟前的17:30 UTC
风速6节,风向东转东北
温度 11°C
湿度 94%
气压 1008 hPa
能见度10公里或以上
1500米以下无云,无积雨云

METAR: UIII 231730Z 06003MPS CAVOK 11/10 Q1008 R30/60D NOSIG RMK QFE711/0949

时间: 01:59 (17:59 UTC)

预报

该预报发布于59分钟前的17:00 UTC
预报有效从23日的 18点(UTC)到 24日的 18点(UTC)
风速2节,风向多变
能见度10公里或以上
成为
从 24日的 03点(UTC)到 24日的 05点(UTC)
风速12节,风向西转西北
散云层高于2000英尺, 积雨云.

TAF: UIII 231700Z 2318/2418 VRB01MPS 9999 NSC BECMG 2403/2405 30006MPS SCT020CB

超过4000个机场的气象观测和天气预报(METAR&TAF报告)。

可查询的气象台以黄色和红色小点在地图上表示。

将鼠标移到小点上方,可查看气象台名称。

然后点击查看天气观测和预报。

如需切换地图:点击带黑十字的绿色按钮放大地图;点击带横线的绿色按钮缩小地图;或者点击绿色箭头查看邻近地区的地图。


METAR-TAF: